Aérodrome :
LOGIN :

S'inscrire | Disclaimer

   EN    FR    IT 

 










Légende :    VFR   VFR Marginal   IFR   IFR Intensif   IFR Très Intensif
Visi : 
Plafond : 
>= 8 km
>= 3000ft
5 à 8 km
1000 à 3000 ft
1500m à 5 km
500 à 1000 ft
800 à 1500m
200 à 500 ft
< 800m
< 200 ft
Symboles :   Orages  Brouillard  Fortes neiges  Fortes précipitations  Vent > 20 kt
SIGMETs :   Divers  Orages  Givrage  Turbulence  Onde Orograph.  Cendres Volcan.







- Altitude de l'aérodrome : 26 ft


ETNT - Wittmundhaven AB

DERNIER METAR :
  • 201820Z 17003KT 5000 BR BKN010 02/01 Q1001 GRN

METARs EXPIRÉS :
  • 201720Z 16004KT 5000 BR BKN008 02/01 Q1001 GRN
  • 201620Z 17003KT 5000 MIFG BR BKN006 02/01 Q1000 YLO

TAF TAF ETNT
Valide du 20 à 18h jusqu'au 21 à 03h UTC


201710Z 2018/2103 22012KT 7000 NSW BKN012
TEMPO 2018/2024 17010KT 4000 BR BKN002
TEMPO 2100/2103 27010KT 2000 -RASN BKN004 OVC020 BY ETGL
Pas de NOTAMs connus pour ce terrain.



MET'MAP, la Météo Aéronautique d'un coup d'oeil ! - Copyright ORBIFLY Décembre 2007 - Disclaimer

ORBIFLY MET'MAP TEAM :

Programmation & Développement : Alexandra Zaïnal
Conception & Développement : Baudouin d'Aumeries
Co-Programmation & Développement : Marc-Olivier Méhu
Soutien technique & logistique : Manuel Goepfert

Contact : metmap@orbifly.com




SOURCES & CREDITS :

   NOAA